Time;durP1;ratioP1;P1;durP2;ratioP2;P2;SDS_P1;SDS_P2;PMS_P1;PMS_P2;Temp;Humidity;BMP_temperature;BMP_pressure;BME280_temperature;BME280_humidity;BME280_pressure;Samples;Min_cycle;Max_cycle;Signal;HPM_P1;HPM_P2
2021/06/26 00:00:53;;;;;;;;;;;17.20;99.90;;;;;;5066586;28;19992;-57
2021/06/26 00:03:20;;;;;;;;;;;17.20;99.90;;;;;;5066873;28;19982;-57
2021/06/26 00:05:45;;;;;;;;;;;17.20;99.90;;;;;;5066560;28;20356;-57
2021/06/26 00:08:12;;;;;;;;;;;17.20;99.90;;;;;;5066403;28;19992;-57
2021/06/26 00:10:39;;;;;;;;;;;17.10;99.90;;;;;;5066175;28;20013;-57
2021/06/26 00:13:05;;;;;;;;;;;17.20;99.90;;;;;;5075940;28;19989;-57
2021/06/26 00:15:31;;;;;;;;;;;17.30;99.90;;;;;;5066553;28;19996;-56
2021/06/26 00:17:56;;;;;;;;;;;17.30;99.90;;;;;;5066149;28;20497;-57
2021/06/26 00:20:23;;;;;;;;;;;17.30;99.90;;;;;;5073645;28;20093;-57
2021/06/26 00:22:48;;;;;;;;;;;17.20;99.90;;;;;;5086287;28;20003;-57
2021/06/26 00:25:14;;;;;;;;;;;17.20;99.90;;;;;;5085644;28;20058;-57
2021/06/26 00:27:39;;;;;;;;;;;17.20;99.90;;;;;;5081904;28;19991;-57
2021/06/26 00:30:05;;;;;;;;;;;17.20;99.90;;;;;;5074369;28;20009;-57
2021/06/26 00:32:31;;;;;;;;;;;17.20;99.90;;;;;;5086096;28;19993;-57
2021/06/26 00:34:57;;;;;;;;;;;17.20;99.90;;;;;;5070989;28;19996;-57
2021/06/26 00:37:23;;;;;;;;;;;17.30;99.90;;;;;;5065392;28;19986;-57
2021/06/26 00:39:48;;;;;;;;;;;17.30;99.90;;;;;;5064986;28;19992;-57
2021/06/26 00:42:14;;;;;;;;;;;17.40;99.90;;;;;;5066074;28;20095;-57
2021/06/26 00:44:40;;;;;;;;;;;17.30;99.90;;;;;;5066019;28;20004;-57
2021/06/26 00:47:11;;;;;;;;;;;17.20;99.90;;;;;;5066063;28;19982;-56
2021/06/26 00:49:39;;;;;;;;;;;17.20;99.90;;;;;;5064843;28;20059;-57
2021/06/26 00:52:04;;;;;;;;;;;17.20;99.90;;;;;;5065405;28;19988;-57
2021/06/26 00:54:32;;;;;;;;;;;17.10;99.90;;;;;;5065592;28;19989;-57
2021/06/26 00:56:59;;;;;;;;;;;17.10;99.90;;;;;;5065451;28;20471;-57
2021/06/26 00:59:24;;;;;;;;;;;16.90;99.90;;;;;;5064938;28;19993;-57
2021/06/26 01:01:51;;;;;;;;;;;16.90;99.90;;;;;;5065361;28;19985;-57
2021/06/26 01:04:17;;;;;;;;;;;16.80;99.90;;;;;;5066113;28;20366;-57
2021/06/26 01:06:43;;;;;;;;;;;16.90;99.90;;;;;;5065926;28;19993;-57
2021/06/26 01:09:08;;;;;;;;;;;16.90;99.90;;;;;;5065274;28;20005;-57
2021/06/26 01:11:34;;;;;;;;;;;17.10;99.90;;;;;;5068692;28;20083;-57
2021/06/26 01:14:00;;;;;;;;;;;17.10;99.90;;;;;;5065066;28;20081;-57
2021/06/26 01:16:25;;;;;;;;;;;17.10;99.90;;;;;;5065603;28;19989;-57
2021/06/26 01:18:51;;;;;;;;;;;17.10;99.90;;;;;;5072554;28;20095;-57
2021/06/26 01:21:17;;;;;;;;;;;17.20;99.90;;;;;;5068691;28;19990;-57
2021/06/26 01:23:49;;;;;;;;;;;17.30;99.90;;;;;;5075898;28;20006;-57
2021/06/26 01:26:16;;;;;;;;;;;17.40;99.90;;;;;;5071351;28;19994;-57
2021/06/26 01:28:41;;;;;;;;;;;17.50;99.90;;;;;;5066910;28;19981;-57
2021/06/26 01:31:07;;;;;;;;;;;17.40;99.90;;;;;;5067500;28;20043;-57
2021/06/26 01:33:33;;;;;;;;;;;17.40;99.90;;;;;;5067291;28;20035;-57
2021/06/26 01:35:59;;;;;;;;;;;17.30;99.90;;;;;;5067012;28;20008;-57
2021/06/26 01:38:24;;;;;;;;;;;17.20;99.90;;;;;;5067164;28;19981;-57
2021/06/26 01:40:50;;;;;;;;;;;17.30;99.90;;;;;;5067832;28;20012;-57
2021/06/26 01:43:15;;;;;;;;;;;17.30;99.90;;;;;;5072074;28;19985;-57
2021/06/26 01:45:41;;;;;;;;;;;17.30;99.90;;;;;;5072915;28;19985;-57
2021/06/26 01:48:07;;;;;;;;;;;17.20;99.90;;;;;;5071538;28;20469;-57
2021/06/26 01:50:34;;;;;;;;;;;17.20;99.90;;;;;;5071073;28;20071;-57
2021/06/26 01:53:01;;;;;;;;;;;17.10;99.90;;;;;;5075681;28;20444;-57
2021/06/26 01:55:26;;;;;;;;;;;17.10;99.90;;;;;;5085930;28;19987;-57
2021/06/26 01:57:52;;;;;;;;;;;16.90;99.90;;;;;;5084567;28;20345;-57
2021/06/26 02:00:18;;;;;;;;;;;16.90;99.90;;;;;;5084545;28;20015;-57
2021/06/26 02:02:45;;;;;;;;;;;16.90;99.90;;;;;;5069095;28;19985;-57
2021/06/26 02:05:11;;;;;;;;;;;16.80;99.90;;;;;;5065395;28;20036;-57
2021/06/26 02:07:37;;;;;;;;;;;16.70;99.90;;;;;;5064898;28;20435;-57
2021/06/26 02:10:03;;;;;;;;;;;16.60;99.90;;;;;;5064244;28;20013;-57
2021/06/26 02:12:29;;;;;;;;;;;16.50;99.90;;;;;;5067819;28;20076;-57
2021/06/26 02:14:54;;;;;;;;;;;16.50;99.90;;;;;;5059959;28;20092;-57
2021/06/26 02:17:20;;;;;;;;;;;16.40;99.90;;;;;;5058482;28;19989;-57
2021/06/26 02:19:49;;;;;;;;;;;16.40;99.90;;;;;;5060822;28;20084;-57
2021/06/26 02:22:15;;;;;;;;;;;16.40;99.90;;;;;;5057928;28;19993;-57
2021/06/26 02:24:42;;;;;;;;;;;16.30;99.90;;;;;;5058027;28;20011;-57
2021/06/26 02:27:08;;;;;;;;;;;16.30;99.90;;;;;;5056672;28;20002;-57
2021/06/26 02:29:34;;;;;;;;;;;16.50;99.90;;;;;;5057700;28;20500;-57
2021/06/26 02:32:01;;;;;;;;;;;16.50;99.90;;;;;;5058221;28;20690;-57
2021/06/26 02:34:26;;;;;;;;;;;16.40;99.90;;;;;;5057492;28;20372;-57
2021/06/26 02:36:52;;;;;;;;;;;16.40;99.90;;;;;;5060036;28;20015;-57
2021/06/26 02:39:18;;;;;;;;;;;16.50;99.90;;;;;;5057572;28;20466;-57
2021/06/26 02:41:44;;;;;;;;;;;16.50;99.90;;;;;;5060476;28;20023;-57
2021/06/26 02:44:11;;;;;;;;;;;16.50;99.90;;;;;;5061197;28;19993;-57
2021/06/26 02:46:36;;;;;;;;;;;16.50;99.90;;;;;;5056969;28;19989;-57
2021/06/26 02:49:02;;;;;;;;;;;16.60;99.90;;;;;;5055665;28;20035;-57
2021/06/26 02:51:28;;;;;;;;;;;16.50;99.90;;;;;;5056571;28;19989;-57
2021/06/26 02:53:54;;;;;;;;;;;16.40;99.90;;;;;;5056115;28;20093;-57
2021/06/26 02:56:20;;;;;;;;;;;16.50;99.90;;;;;;5058492;28;20776;-57
2021/06/26 02:58:47;;;;;;;;;;;16.60;99.90;;;;;;5059452;28;20087;-57
2021/06/26 03:01:13;;;;;;;;;;;16.60;99.90;;;;;;5057665;28;20000;-57
2021/06/26 03:03:39;;;;;;;;;;;16.50;99.90;;;;;;5062420;28;19995;-57
2021/06/26 03:06:04;;;;;;;;;;;16.20;99.90;;;;;;5074970;28;19988;-57
2021/06/26 03:08:30;;;;;;;;;;;16.20;99.90;;;;;;5067516;28;19989;-57
2021/06/26 03:10:55;;;;;;;;;;;15.90;99.90;;;;;;5069948;28;20065;-57
2021/06/26 03:13:22;;;;;;;;;;;15.90;99.90;;;;;;5082873;28;20359;-57
2021/06/26 03:15:48;;;;;;;;;;;15.80;99.90;;;;;;5075946;28;20000;-57
2021/06/26 03:18:13;;;;;;;;;;;15.80;99.90;;;;;;5068538;28;19989;-57
2021/06/26 03:20:39;;;;;;;;;;;15.80;99.90;;;;;;5067477;28;19989;-57
2021/06/26 03:23:05;;;;;;;;;;;15.70;99.90;;;;;;5068487;28;20139;-57
2021/06/26 03:25:31;;;;;;;;;;;15.80;99.90;;;;;;5074668;28;20083;-57
2021/06/26 03:27:57;;;;;;;;;;;15.80;99.90;;;;;;5066497;28;19985;-57
2021/06/26 03:30:23;;;;;;;;;;;15.70;99.90;;;;;;5074016;28;20138;-57
2021/06/26 03:32:48;;;;;;;;;;;15.70;99.90;;;;;;5082052;28;20494;-57
2021/06/26 03:35:15;;;;;;;;;;;15.70;99.90;;;;;;5086820;28;20004;-57
2021/06/26 03:37:41;;;;;;;;;;;15.70;99.90;;;;;;5069336;28;19985;-57
2021/06/26 03:40:07;;;;;;;;;;;15.90;99.90;;;;;;5068703;28;19997;-57
2021/06/26 03:42:33;;;;;;;;;;;16.00;99.90;;;;;;5078999;28;19985;-57
2021/06/26 03:44:59;;;;;;;;;;;16.10;99.90;;;;;;5074971;28;20405;-57
2021/06/26 03:47:26;;;;;;;;;;;16.10;99.90;;;;;;5087457;28;20099;-57
2021/06/26 03:49:52;;;;;;;;;;;16.10;99.90;;;;;;5070281;28;20054;-57
2021/06/26 03:52:18;;;;;;;;;;;16.20;99.90;;;;;;5072983;28;19992;-57
2021/06/26 03:54:43;;;;;;;;;;;16.10;99.90;;;;;;5073542;28;19993;-57
2021/06/26 03:57:09;;;;;;;;;;;16.00;99.90;;;;;;5068967;28;19992;-57
2021/06/26 03:59:35;;;;;;;;;;;15.90;99.90;;;;;;5068304;28;20028;-57
2021/06/26 04:02:00;;;;;;;;;;;15.90;99.90;;;;;;5068795;28;19989;-57
2021/06/26 04:04:26;;;;;;;;;;;15.80;99.90;;;;;;5068325;28;20352;-57
2021/06/26 04:06:52;;;;;;;;;;;15.80;99.90;;;;;;5067371;28;19989;-57
2021/06/26 04:09:17;;;;;;;;;;;15.90;99.90;;;;;;5069035;28;20045;-57
2021/06/26 04:11:43;;;;;;;;;;;15.90;99.90;;;;;;5068706;28;19997;-57
2021/06/26 04:14:08;;;;;;;;;;;15.90;99.90;;;;;;5068839;28;20004;-57
2021/06/26 04:16:34;;;;;;;;;;;15.90;99.90;;;;;;5068465;28;19981;-57
2021/06/26 04:19:00;;;;;;;;;;;15.90;99.90;;;;;;5067048;28;20482;-57
2021/06/26 04:21:25;;;;;;;;;;;15.90;99.90;;;;;;5068493;28;19985;-57
2021/06/26 04:23:51;;;;;;;;;;;15.80;99.90;;;;;;5067598;28;19991;-57
2021/06/26 04:26:16;;;;;;;;;;;15.80;99.90;;;;;;5068734;28;20025;-57
2021/06/26 04:28:42;;;;;;;;;;;15.80;99.90;;;;;;5067580;28;20068;-57
2021/06/26 04:31:07;;;;;;;;;;;15.90;99.90;;;;;;5068321;28;19989;-56
2021/06/26 04:33:33;;;;;;;;;;;15.90;99.90;;;;;;5067838;28;19989;-57
2021/06/26 04:35:59;;;;;;;;;;;16.00;99.90;;;;;;5084762;28;19989;-57
2021/06/26 04:38:25;;;;;;;;;;;15.90;99.90;;;;;;5073550;28;20015;-57
2021/06/26 04:40:52;;;;;;;;;;;16.00;99.90;;;;;;5067536;28;19981;-57
2021/06/26 04:43:18;;;;;;;;;;;16.10;99.90;;;;;;5068656;28;19990;-57
2021/06/26 04:45:44;;;;;;;;;;;16.10;99.90;;;;;;5068217;28;20039;-57
2021/06/26 04:48:11;;;;;;;;;;;16.10;99.90;;;;;;5067093;28;20039;-57
2021/06/26 04:50:37;;;;;;;;;;;16.10;99.90;;;;;;5070791;28;20501;-56
2021/06/26 04:53:02;;;;;;;;;;;16.00;99.90;;;;;;5083922;28;19984;-57
2021/06/26 04:55:28;;;;;;;;;;;16.10;99.90;;;;;;5085070;28;20460;-57
2021/06/26 04:57:53;;;;;;;;;;;16.00;99.90;;;;;;5067403;28;20080;-57
2021/06/26 05:00:19;;;;;;;;;;;16.10;99.90;;;;;;5077887;28;20012;-57
2021/06/26 05:02:45;;;;;;;;;;;16.00;99.90;;;;;;5068614;28;19989;-57
2021/06/26 05:05:11;;;;;;;;;;;16.10;99.90;;;;;;5073685;28;20034;-57
2021/06/26 05:07:36;;;;;;;;;;;16.00;99.90;;;;;;5076782;28;19986;-57
2021/06/26 05:10:03;;;;;;;;;;;16.00;99.90;;;;;;5080220;28;20004;-57
2021/06/26 05:12:28;;;;;;;;;;;16.00;99.90;;;;;;5079091;28;19989;-57
2021/06/26 05:14:54;;;;;;;;;;;16.10;99.90;;;;;;5067135;28;19981;-57
2021/06/26 05:17:19;;;;;;;;;;;16.00;99.90;;;;;;5082179;28;20024;-57
2021/06/26 05:19:45;;;;;;;;;;;16.30;99.90;;;;;;5087831;28;20033;-57
2021/06/26 05:22:12;;;;;;;;;;;16.40;99.90;;;;;;5087614;28;19988;-57
2021/06/26 05:24:38;;;;;;;;;;;16.30;99.90;;;;;;5086727;28;20024;-57
2021/06/26 05:27:04;;;;;;;;;;;16.40;99.90;;;;;;5087638;28;20024;-57
2021/06/26 05:29:29;;;;;;;;;;;16.50;99.90;;;;;;5087540;28;20005;-57
2021/06/26 05:31:55;;;;;;;;;;;16.50;99.90;;;;;;5086963;28;20906;-57
2021/06/26 05:34:20;;;;;;;;;;;16.40;99.90;;;;;;5087683;28;20027;-57
2021/06/26 05:36:46;;;;;;;;;;;16.40;99.90;;;;;;5086900;28;19992;-57
2021/06/26 05:39:12;;;;;;;;;;;16.40;99.90;;;;;;5087342;28;20028;-57
2021/06/26 05:41:37;;;;;;;;;;;16.50;99.90;;;;;;5074321;28;19985;-57
2021/06/26 05:44:03;;;;;;;;;;;16.40;99.90;;;;;;5080406;28;19997;-57
2021/06/26 05:46:28;;;;;;;;;;;16.50;99.90;;;;;;5098393;28;20377;-57
2021/06/26 05:48:54;;;;;;;;;;;16.50;99.90;;;;;;5092747;28;19997;-57
2021/06/26 05:51:20;;;;;;;;;;;16.60;99.90;;;;;;5076700;28;19989;-57
2021/06/26 05:53:45;;;;;;;;;;;16.70;99.90;;;;;;5071107;28;20485;-57
2021/06/26 05:56:11;;;;;;;;;;;16.80;99.90;;;;;;5075532;28;19988;-59
2021/06/26 05:58:37;;;;;;;;;;;16.80;99.90;;;;;;5076428;28;20079;-58
2021/06/26 06:01:03;;;;;;;;;;;16.80;99.90;;;;;;5073413;28;19989;-58
2021/06/26 06:03:29;;;;;;;;;;;16.90;99.90;;;;;;5067620;28;19996;-58
2021/06/26 06:05:54;;;;;;;;;;;16.80;99.90;;;;;;5067467;28;19985;-58
2021/06/26 06:08:20;;;;;;;;;;;16.90;99.90;;;;;;5069033;28;19989;-58
2021/06/26 06:10:46;;;;;;;;;;;17.00;99.90;;;;;;5070086;28;20001;-57
2021/06/26 06:13:19;;;;;;;;;;;17.10;99.90;;;;;;5071032;28;20474;-57
2021/06/26 06:15:45;;;;;;;;;;;17.10;99.90;;;;;;5070561;28;20043;-57
2021/06/26 06:18:11;;;;;;;;;;;17.20;99.90;;;;;;5081195;28;20051;-58
2021/06/26 06:20:37;;;;;;;;;;;17.20;99.90;;;;;;5082482;28;19985;-58
2021/06/26 06:23:03;;;;;;;;;;;17.20;99.90;;;;;;5066761;28;19993;-58
2021/06/26 06:25:29;;;;;;;;;;;17.20;99.90;;;;;;5073212;28;20034;-58
2021/06/26 06:27:55;;;;;;;;;;;17.30;99.90;;;;;;5073036;28;19989;-58
2021/06/26 06:30:20;;;;;;;;;;;17.40;99.90;;;;;;5064548;28;20044;-59
2021/06/26 06:32:46;;;;;;;;;;;17.50;99.90;;;;;;5071885;28;19989;-58
2021/06/26 06:35:11;;;;;;;;;;;17.50;99.90;;;;;;5066779;28;19993;-58
2021/06/26 06:37:37;;;;;;;;;;;17.60;99.90;;;;;;5068602;28;20422;-58
2021/06/26 06:40:04;;;;;;;;;;;17.60;99.90;;;;;;5068170;28;20021;-58
2021/06/26 06:42:29;;;;;;;;;;;17.70;99.90;;;;;;5069225;28;19997;-58
2021/06/26 06:44:56;;;;;;;;;;;17.70;99.90;;;;;;5068237;28;19985;-58
2021/06/26 06:47:21;;;;;;;;;;;17.60;99.90;;;;;;5067323;28;19985;-58
2021/06/26 06:49:47;;;;;;;;;;;17.70;99.90;;;;;;5068826;28;20057;-58
2021/06/26 06:52:12;;;;;;;;;;;17.90;99.90;;;;;;5068223;28;19985;-58
2021/06/26 06:54:39;;;;;;;;;;;17.90;99.90;;;;;;5068150;28;20478;-58
2021/06/26 06:57:04;;;;;;;;;;;17.90;99.90;;;;;;5068239;28;20001;-58
2021/06/26 06:59:31;;;;;;;;;;;18.00;99.90;;;;;;5068334;28;20348;-58
2021/06/26 07:01:58;;;;;;;;;;;18.10;99.90;;;;;;5067959;28;19989;-58
2021/06/26 07:04:24;;;;;;;;;;;18.20;99.90;;;;;;5068507;28;20600;-58
2021/06/26 07:06:49;;;;;;;;;;;18.20;99.90;;;;;;5084449;28;19993;-58
2021/06/26 07:09:15;;;;;;;;;;;18.10;99.90;;;;;;5088907;28;20243;-58
2021/06/26 07:11:40;;;;;;;;;;;18.30;99.90;;;;;;5076544;28;19985;-58
2021/06/26 07:14:06;;;;;;;;;;;18.30;99.90;;;;;;5068457;28;20068;-58
2021/06/26 07:16:31;;;;;;;;;;;18.10;99.90;;;;;;5070095;28;20105;-58
2021/06/26 07:18:57;;;;;;;;;;;18.20;99.90;;;;;;5086333;28;19995;-58
2021/06/26 07:21:22;;;;;;;;;;;18.40;99.90;;;;;;5088412;28;20214;-58
2021/06/26 07:23:48;;;;;;;;;;;18.30;99.90;;;;;;5087966;28;20065;-58
2021/06/26 07:26:13;;;;;;;;;;;18.40;99.90;;;;;;5088670;28;19989;-58
2021/06/26 07:28:39;;;;;;;;;;;18.30;99.90;;;;;;5088148;28;19981;-58
2021/06/26 07:31:04;;;;;;;;;;;18.40;99.90;;;;;;5088052;28;20008;-58
2021/06/26 07:33:30;;;;;;;;;;;18.40;99.90;;;;;;5088211;28;20012;-59
2021/06/26 07:35:56;;;;;;;;;;;18.20;99.90;;;;;;5087590;28;20435;-59
2021/06/26 07:38:23;;;;;;;;;;;18.40;99.90;;;;;;5088052;28;19985;-59
2021/06/26 07:40:49;;;;;;;;;;;18.50;99.90;;;;;;5087549;28;20035;-59
2021/06/26 07:43:14;;;;;;;;;;;18.50;99.90;;;;;;5088526;28;20443;-59
2021/06/26 07:45:40;;;;;;;;;;;18.70;99.90;;;;;;5087447;28;20031;-59
2021/06/26 07:48:05;;;;;;;;;;;18.40;99.90;;;;;;5087258;28;20096;-58
2021/06/26 07:50:31;;;;;;;;;;;18.60;99.90;;;;;;5087574;28;20004;-58
2021/06/26 07:52:56;;;;;;;;;;;18.70;99.90;;;;;;5087149;28;20035;-58
2021/06/26 07:55:22;;;;;;;;;;;18.70;99.90;;;;;;5087714;28;19981;-58
2021/06/26 07:57:47;;;;;;;;;;;18.80;99.90;;;;;;5087532;28;20004;-58
2021/06/26 08:00:13;;;;;;;;;;;18.90;99.90;;;;;;5087903;28;20528;-58
2021/06/26 08:02:39;;;;;;;;;;;19.00;99.90;;;;;;5087497;28;19985;-59
2021/06/26 08:05:05;;;;;;;;;;;19.00;99.90;;;;;;5087419;28;20080;-58
2021/06/26 08:07:30;;;;;;;;;;;19.10;99.90;;;;;;5087358;28;20478;-58
2021/06/26 08:09:57;;;;;;;;;;;19.10;99.90;;;;;;5087053;28;20008;-59
2021/06/26 08:12:22;;;;;;;;;;;19.10;99.90;;;;;;5087483;28;20024;-58
2021/06/26 08:14:48;;;;;;;;;;;19.20;99.90;;;;;;5087114;28;20019;-59
2021/06/26 08:17:14;;;;;;;;;;;19.20;99.90;;;;;;5087886;28;20076;-58
2021/06/26 08:19:40;;;;;;;;;;;19.30;99.90;;;;;;5086850;28;20321;-58
2021/06/26 08:22:07;;;;;;;;;;;19.40;99.90;;;;;;5087461;28;19988;-58
2021/06/26 08:24:34;;;;;;;;;;;19.40;99.90;;;;;;5087133;28;19985;-59
2021/06/26 08:27:01;;;;;;;;;;;19.50;99.90;;;;;;5085637;28;20024;-58
2021/06/26 08:29:27;;;;;;;;;;;19.50;99.90;;;;;;5086958;28;20008;-59
2021/06/26 08:31:53;;;;;;;;;;;19.60;99.90;;;;;;5086601;28;19980;-59
2021/06/26 08:34:18;;;;;;;;;;;19.70;99.90;;;;;;5086668;28;20370;-59
2021/06/26 08:36:44;;;;;;;;;;;19.70;99.90;;;;;;5087535;28;19988;-59
2021/06/26 08:39:09;;;;;;;;;;;19.80;99.90;;;;;;5086363;28;19981;-59
2021/06/26 08:41:40;;;;;;;;;;;19.70;99.90;;;;;;5086486;28;20211;-59
2021/06/26 08:44:06;;;;;;;;;;;19.90;99.90;;;;;;5086824;28;20210;-58
2021/06/26 08:46:32;;;;;;;;;;;20.00;99.90;;;;;;5087079;28;20067;-58
2021/06/26 08:48:57;;;;;;;;;;;20.00;99.90;;;;;;5086064;28;20150;-59
2021/06/26 08:51:23;;;;;;;;;;;20.10;99.90;;;;;;5086737;28;19991;-59
2021/06/26 08:53:49;;;;;;;;;;;20.10;99.90;;;;;;5085896;28;20348;-59
2021/06/26 08:56:16;;;;;;;;;;;20.00;99.90;;;;;;5087015;28;20483;-58
2021/06/26 08:58:41;;;;;;;;;;;20.10;99.90;;;;;;5085284;28;19991;-58
2021/06/26 09:01:08;;;;;;;;;;;20.10;99.90;;;;;;5086147;28;19985;-58
2021/06/26 09:03:33;;;;;;;;;;;20.10;99.90;;;;;;5086102;28;20000;-58
2021/06/26 09:06:03;;;;;;;;;;;20.10;99.90;;;;;;5086380;28;19992;-58
2021/06/26 09:08:29;;;;;;;;;;;20.00;99.90;;;;;;5086542;28;20374;-59
2021/06/26 09:10:55;;;;;;;;;;;19.90;99.90;;;;;;5085665;28;20478;-59
2021/06/26 09:13:23;;;;;;;;;;;20.10;99.90;;;;;;5078813;28;19985;-55
2021/06/26 09:15:49;;;;;;;;;;;20.30;99.90;;;;;;5069241;28;20083;-52
2021/06/26 09:18:18;;;;;;;;;;;20.30;99.90;;;;;;5088075;28;20426;-53
2021/06/26 09:20:48;;;;;;;;;;;20.40;99.90;;;;;;5086956;28;19984;-54
2021/06/26 09:23:16;;;;;;;;;;;20.40;99.90;;;;;;5087256;28;20028;-54
2021/06/26 09:25:42;;;;;;;;;;;20.40;99.90;;;;;;5085494;28;19985;-54
2021/06/26 09:28:12;;;;;;;;;;;20.60;99.90;;;;;;5086122;28;19991;-51
2021/06/26 09:30:37;;;;;;;;;;;20.50;99.90;;;;;;5085297;28;20415;-54
2021/06/26 09:33:10;;;;;;;;;;;20.60;99.90;;;;;;5086055;28;20350;-53
2021/06/26 09:35:35;;;;;;;;;;;20.70;99.90;;;;;;5085607;28;19993;-55
2021/06/26 09:38:05;;;;;;;;;;;20.60;99.90;;;;;;5085605;28;20367;-55
2021/06/26 09:40:32;;;;;;;;;;;20.60;99.90;;;;;;5085568;28;19981;-55
2021/06/26 09:42:58;;;;;;;;;;;20.80;99.90;;;;;;5085326;28;19981;-53
2021/06/26 09:45:23;;;;;;;;;;;20.90;99.90;;;;;;5085159;28;20527;-54
2021/06/26 09:47:49;;;;;;;;;;;20.90;99.90;;;;;;5085110;28;20008;-54
2021/06/26 09:50:15;;;;;;;;;;;21.00;99.90;;;;;;5086078;28;20462;-54
2021/06/26 09:52:47;;;;;;;;;;;21.20;99.90;;;;;;5084514;28;20362;-53
2021/06/26 09:55:13;;;;;;;;;;;21.30;99.90;;;;;;5085734;28;20054;-54
2021/06/26 09:57:39;;;;;;;;;;;21.10;99.90;;;;;;5085123;28;19985;-54
2021/06/26 10:00:05;;;;;;;;;;;21.20;99.90;;;;;;5085206;28;20458;-53
2021/06/26 10:02:31;;;;;;;;;;;21.30;99.90;;;;;;5085316;28;19992;-53
2021/06/26 10:04:58;;;;;;;;;;;21.40;99.90;;;;;;5085049;28;19988;-54
2021/06/26 10:07:24;;;;;;;;;;;21.40;99.90;;;;;;5085364;28;20391;-54
2021/06/26 10:09:50;;;;;;;;;;;21.50;99.90;;;;;;5085170;28;20464;-54
2021/06/26 10:12:17;;;;;;;;;;;21.40;99.90;;;;;;5089993;28;20383;-54
2021/06/26 10:14:43;;;;;;;;;;;21.30;99.90;;;;;;5089157;28;19985;-52
2021/06/26 10:17:09;;;;;;;;;;;21.40;99.90;;;;;;5089587;28;19992;-54
2021/06/26 10:19:36;;;;;;;;;;;21.20;99.90;;;;;;5089030;28;19981;-54
2021/06/26 10:22:02;;;;;;;;;;;21.40;99.90;;;;;;5089455;28;19992;-53
2021/06/26 10:24:29;;;;;;;;;;;21.70;99.90;;;;;;5089359;28;19981;-54
2021/06/26 10:26:54;;;;;;;;;;;21.70;99.90;;;;;;5088903;28;20022;-52
2021/06/26 10:29:29;;;;;;;;;;;21.70;99.90;;;;;;5088910;28;20039;-54
2021/06/26 10:31:55;;;;;;;;;;;21.70;99.90;;;;;;5089199;28;19988;-54
2021/06/26 10:34:25;;;;;;;;;;;21.50;99.90;;;;;;5089424;28;20362;-54
2021/06/26 10:36:54;;;;;;;;;;;21.50;99.90;;;;;;5088611;28;19981;-55
2021/06/26 10:39:22;;;;;;;;;;;21.60;99.90;;;;;;5089092;28;20485;-54
2021/06/26 10:41:57;;;;;;;;;;;21.90;99.90;;;;;;5088607;28;19989;-52
2021/06/26 10:44:22;;;;;;;;;;;22.00;99.90;;;;;;5088780;28;19988;-54
2021/06/26 10:46:49;;;;;;;;;;;21.90;99.90;;;;;;5088648;28;20072;-52
2021/06/26 10:49:14;;;;;;;;;;;22.20;99.90;;;;;;5088796;28;20194;-54
2021/06/26 10:51:42;;;;;;;;;;;22.00;99.90;;;;;;5087846;28;20450;-53
2021/06/26 10:54:25;;;;;;;;;;;22.10;99.90;;;;;;5088713;28;20242;-51
2021/06/26 10:57:01;;;;;;;;;;;22.00;99.90;;;;;;5088317;28;20463;-54
2021/06/26 10:59:26;;;;;;;;;;;22.10;99.90;;;;;;5088366;28;20061;-53
2021/06/26 11:01:56;;;;;;;;;;;22.10;99.90;;;;;;5088510;28;20066;-54
2021/06/26 11:04:22;;;;;;;;;;;22.20;99.90;;;;;;5088486;28;19985;-55
2021/06/26 11:06:50;;;;;;;;;;;22.50;99.90;;;;;;5088448;28;20039;-55
2021/06/26 11:09:15;;;;;;;;;;;22.70;99.90;;;;;;5089012;28;20533;-54
2021/06/26 11:11:41;;;;;;;;;;;23.00;99.90;;;;;;5088422;28;20076;-54
2021/06/26 11:14:06;;;;;;;;;;;23.20;99.90;;;;;;5088257;28;20502;-54
2021/06/26 11:16:32;;;;;;;;;;;23.30;99.90;;;;;;5088537;28;19981;-54
2021/06/26 11:18:58;;;;;;;;;;;23.30;99.90;;;;;;5087540;28;20007;-52
2021/06/26 11:21:23;;;;;;;;;;;23.40;99.90;;;;;;5087671;28;20486;-54
2021/06/26 11:23:50;;;;;;;;;;;22.90;99.90;;;;;;5087600;28;20029;-53
2021/06/26 11:26:15;;;;;;;;;;;22.90;99.90;;;;;;5088914;28;20495;-53
2021/06/26 11:28:42;;;;;;;;;;;23.10;99.90;;;;;;5087819;28;19981;-54
2021/06/26 11:31:09;;;;;;;;;;;23.40;99.90;;;;;;5087926;28;20014;-53
2021/06/26 11:33:36;;;;;;;;;;;23.50;99.90;;;;;;5087664;28;20474;-53
2021/06/26 11:36:03;;;;;;;;;;;23.40;99.90;;;;;;5088049;28;19989;-54
2021/06/26 11:38:30;;;;;;;;;;;23.60;99.90;;;;;;5087964;28;20402;-54
2021/06/26 11:41:06;;;;;;;;;;;23.80;99.90;;;;;;5087480;28;19985;-53
2021/06/26 11:43:31;;;;;;;;;;;23.90;99.90;;;;;;5087940;28;20075;-54
2021/06/26 11:45:57;;;;;;;;;;;23.90;99.90;;;;;;5087372;28;20415;-55
2021/06/26 11:48:23;;;;;;;;;;;24.10;99.90;;;;;;5087828;28;20001;-53
2021/06/26 11:50:48;;;;;;;;;;;24.10;99.90;;;;;;5087282;28;20012;-53
2021/06/26 11:53:15;;;;;;;;;;;24.20;99.90;;;;;;5087974;28;20006;-51
2021/06/26 11:56:04;;;;;;;;;;;24.20;99.90;;;;;;5087481;28;20498;-54
2021/06/26 11:58:39;;;;;;;;;;;24.30;99.90;;;;;;5087235;28;19989;-52
2021/06/26 12:01:08;;;;;;;;;;;24.50;99.90;;;;;;5087407;28;20500;-52
2021/06/26 12:03:35;;;;;;;;;;;24.50;99.90;;;;;;5087640;28;20037;-53
2021/06/26 12:06:11;;;;;;;;;;;24.70;99.90;;;;;;5087499;28;20063;-55
2021/06/26 12:08:42;;;;;;;;;;;24.90;99.90;;;;;;5086949;28;19980;-53
2021/06/26 12:11:34;;;;;;;;;;;25.20;99.90;;;;;;5086387;28;20015;-53
2021/06/26 12:14:01;;;;;;;;;;;25.50;99.90;;;;;;5085705;28;20105;-53
2021/06/26 12:16:31;;;;;;;;;;;25.60;99.90;;;;;;5086794;28;19984;-55
2021/06/26 12:19:08;;;;;;;;;;;25.70;99.90;;;;;;5086986;28;19981;-54
2021/06/26 12:21:45;;;;;;;;;;;25.60;99.90;;;;;;5086816;28;19991;-55
2021/06/26 12:24:11;;;;;;;;;;;25.90;99.90;;;;;;5087102;28;20485;-53
2021/06/26 12:26:38;;;;;;;;;;;26.00;99.90;;;;;;5085891;28;20039;-53
2021/06/26 12:29:03;;;;;;;;;;;26.10;99.90;;;;;;5086906;28;19985;-55
2021/06/26 12:31:40;;;;;;;;;;;26.00;99.90;;;;;;5086694;28;19996;-55
2021/06/26 12:34:06;;;;;;;;;;;26.00;99.90;;;;;;5087152;28;20315;-56
2021/06/26 12:36:32;;;;;;;;;;;26.00;99.90;;;;;;5086807;28;20075;-54
2021/06/26 12:38:58;;;;;;;;;;;26.10;99.90;;;;;;5086732;28;20453;-55
2021/06/26 12:41:25;;;;;;;;;;;26.30;99.90;;;;;;5086721;28;19991;-55
2021/06/26 12:43:53;;;;;;;;;;;26.50;99.90;;;;;;5086407;28;19981;-54
2021/06/26 12:46:19;;;;;;;;;;;26.70;99.90;;;;;;5087023;28;20064;-55
2021/06/26 12:49:07;;;;;;;;;;;26.60;99.90;;;;;;5087029;28;20000;-54
2021/06/26 12:51:34;;;;;;;;;;;26.70;99.90;;;;;;5086324;28;20086;-55
2021/06/26 12:54:09;;;;;;;;;;;26.90;99.90;;;;;;5086712;28;20025;-53
2021/06/26 12:56:36;;;;;;;;;;;26.90;99.90;;;;;;5086497;28;19984;-55
2021/06/26 12:59:12;;;;;;;;;;;27.20;99.90;;;;;;5086190;28;20187;-55
2021/06/26 13:01:43;;;;;;;;;;;27.00;99.90;;;;;;5086235;28;20063;-55
2021/06/26 13:04:10;;;;;;;;;;;27.20;99.90;;;;;;5086585;28;20379;-55
2021/06/26 13:06:55;;;;;;;;;;;27.20;99.90;;;;;;5086283;28;19988;-55
2021/06/26 13:09:34;;;;;;;;;;;27.30;99.90;;;;;;5086004;28;20414;-55
2021/06/26 13:12:17;;;;;;;;;;;27.30;99.90;;;;;;5085767;28;20393;-54
2021/06/26 13:14:44;;;;;;;;;;;27.00;99.90;;;;;;5085919;28;19988;-51
2021/06/26 13:17:12;;;;;;;;;;;27.20;99.90;;;;;;5086387;28;19985;-55
2021/06/26 13:19:38;;;;;;;;;;;27.60;99.90;;;;;;5085570;28;20473;-53
2021/06/26 13:22:03;;;;;;;;;;;27.70;99.90;;;;;;5086315;28;20016;-54
2021/06/26 13:24:29;;;;;;;;;;;27.40;99.90;;;;;;5086171;28;19981;-53
2021/06/26 13:26:54;;;;;;;;;;;27.30;99.90;;;;;;5085958;28;20466;-55
2021/06/26 13:29:20;;;;;;;;;;;27.70;99.90;;;;;;5084363;28;20015;-55
2021/06/26 13:31:47;;;;;;;;;;;28.00;99.90;;;;;;5085430;28;19981;-55
2021/06/26 13:34:14;;;;;;;;;;;27.90;99.90;;;;;;5085872;28;20076;-55
2021/06/26 13:36:39;;;;;;;;;;;27.70;99.90;;;;;;5085729;28;19988;-54
2021/06/26 13:39:05;;;;;;;;;;;27.70;99.90;;;;;;5085882;28;19991;-53
2021/06/26 13:41:31;;;;;;;;;;;27.80;99.90;;;;;;5085732;28;19988;-54
2021/06/26 13:43:56;;;;;;;;;;;28.00;99.90;;;;;;5085426;28;19985;-52
2021/06/26 13:46:23;;;;;;;;;;;28.10;99.90;;;;;;5085737;28;19981;-54
2021/06/26 13:48:48;;;;;;;;;;;27.70;99.90;;;;;;5085489;28;20000;-55
2021/06/26 13:51:15;;;;;;;;;;;27.90;99.90;;;;;;5086153;28;20023;-53
2021/06/26 13:53:41;;;;;;;;;;;28.30;99.90;;;;;;5084969;28;20031;-55
2021/06/26 13:56:06;;;;;;;;;;;28.40;99.90;;;;;;5085644;28;19984;-54
2021/06/26 13:58:32;;;;;;;;;;;28.40;99.90;;;;;;5085554;28;19988;-56
2021/06/26 14:00:58;;;;;;;;;;;28.30;99.90;;;;;;5085066;28;20071;-54
2021/06/26 14:03:24;;;;;;;;;;;28.20;99.90;;;;;;5085538;28;20464;-54
2021/06/26 14:05:49;;;;;;;;;;;28.30;99.90;;;;;;5085581;28;20502;-54
2021/06/26 14:08:15;;;;;;;;;;;28.40;99.90;;;;;;5086581;28;19992;-54
2021/06/26 14:10:40;;;;;;;;;;;28.70;99.90;;;;;;5085322;28;20004;-54
2021/06/26 14:13:06;;;;;;;;;;;29.10;99.90;;;;;;5085321;28;20088;-56